Time;durP1;ratioP1;P1;durP2;ratioP2;P2;SDS_P1;SDS_P2;PMS_P1;PMS_P2;Temp;Humidity;BMP_temperature;BMP_pressure;BME280_temperature;BME280_humidity;BME280_pressure;Samples;Min_cycle;Max_cycle;Signal;HPM_P1;HPM_P2
2023/09/12 00:00:35;;;;;;;38.00;27.42;;;;;;;;;;5048927;28;20489;-90
2023/09/12 00:03:01;;;;;;;35.63;27.05;;;;;;;;;;5032738;28;20700;-90
2023/09/12 00:05:27;;;;;;;43.22;28.40;;;;;;;;;;5033741;28;20098;-90
2023/09/12 00:07:53;;;;;;;43.20;28.73;;;;;;;;;;5049660;28;20052;-91
2023/09/12 00:10:20;;;;;;;38.95;27.27;;;;;;;;;;5048157;28;20053;-87
2023/09/12 00:12:46;;;;;;;36.10;27.55;;;;;;;;;;5066009;28;20295;-87
2023/09/12 00:15:12;;;;;;;34.85;27.30;;;;;;;;;;5031887;28;20048;-87
2023/09/12 00:17:38;;;;;;;38.58;27.75;;;;;;;;;;5031763;28;20092;-88
2023/09/12 00:20:06;;;;;;;39.17;29.20;;;;;;;;;;5064942;28;20079;-88
2023/09/12 00:22:32;;;;;;;38.70;28.90;;;;;;;;;;5032394;28;20167;-88
2023/09/12 00:24:58;;;;;;;35.45;27.98;;;;;;;;;;5065103;28;20111;-88
2023/09/12 00:27:27;;;;;;;34.65;28.02;;;19.70;1.00;;;;;;5048238;28;20045;-88
2023/09/12 00:29:53;;;;;;;39.30;26.92;;;;;;;;;;5015589;28;20056;-89
2023/09/12 00:32:19;;;;;;;37.35;27.65;;;;;;;;;;5031388;28;20088;-89
2023/09/12 00:34:45;;;;;;;36.13;27.60;;;;;;;;;;5031236;28;20049;-89
2023/09/12 00:37:12;;;;;;;39.95;27.63;;;;;;;;;;5036969;28;20050;-88
2023/09/12 00:39:38;;;;;;;32.78;25.38;;;;;;;;;;5036381;28;20049;-88
2023/09/12 00:42:04;;;;;;;34.97;26.63;;;19.60;5.90;;;;;;5034115;28;20092;-89
2023/09/12 00:44:30;;;;;;;36.58;26.52;;;;;;;;;;5064484;28;20037;-87
2023/09/12 00:46:57;;;;;;;41.90;28.35;;;;;;;;;;5047708;28;20046;-85
2023/09/12 00:49:24;;;;;;;32.10;25.42;;;;;;;;;;5047566;28;20045;-86
2023/09/12 00:51:51;;;;;;;37.95;28.25;;;19.50;1.00;;;;;;5030867;28;20084;-88
2023/09/12 00:54:17;;;;;;;37.65;26.98;;;;;;;;;;5047805;28;20099;-89
2023/09/12 00:56:43;;;;;;;37.88;26.75;;;;;;;;;;5065282;28;20045;-88
2023/09/12 00:59:15;;;;;;;38.38;27.05;;;19.30;6.50;;;;;;5048036;28;20046;-89
2023/09/12 01:01:41;;;;;;;39.13;28.20;;;;;;;;;;5047825;28;20049;-89
2023/09/12 01:04:07;;;;;;;37.75;28.77;;;;;;;;;;5047954;28;20056;-90
2023/09/12 01:06:34;;;;;;;44.95;29.17;;;19.40;1.00;;;;;;5031826;28;20148;-87
2023/09/12 01:09:00;;;;;;;38.92;26.92;;;;;;;;;;5048021;28;20050;-89
2023/09/12 01:11:27;;;;;;;39.45;27.88;;;19.00;7.40;;;;;;5049444;28;20048;-91
2023/09/12 01:13:54;;;;;;;34.65;27.45;;;;;;;;;;5035829;28;20124;-89
2023/09/12 01:16:20;;;;;;;41.42;28.05;;;;;;;;;;5053300;28;20046;-90
2023/09/12 01:18:46;;;;;;;40.92;28.90;;;;;;;;;;5036360;28;20049;-90
2023/09/12 01:21:38;;;;;;;38.80;28.10;;;19.40;1.00;;;;;;5052360;28;20390;-89
2023/09/12 01:24:09;;;;;;;36.60;26.45;;;19.20;1.00;;;;;;5051761;28;20136;-90
2023/09/12 01:26:50;;;;;;;35.22;26.10;;;19.40;1.00;;;;;;5052549;28;20130;-89
2023/09/12 01:29:16;;;;;;;41.20;28.02;;;;;;;;;;5037699;28;20053;-90
2023/09/12 01:31:44;;;;;;;43.50;27.95;;;19.10;1.00;;;;;;5035936;28;20424;-88
2023/09/12 01:34:11;;;;;;;34.38;27.48;;;;;;;;;;5051452;28;20049;-89
2023/09/12 01:36:37;;;;;;;38.05;28.08;;;;;;;;;;5068077;28;20057;-88
2023/09/12 01:39:03;;;;;;;40.28;29.50;;;;;;;;;;5051135;28;20056;-90
2023/09/12 01:41:34;;;;;;;43.00;27.73;;;19.20;1.00;;;;;;5034392;28;20124;-88
2023/09/12 01:44:01;;;;;;;43.35;28.75;;;19.20;1.00;;;;;;5051189;28;20045;-89
2023/09/12 01:46:28;;;;;;;39.40;27.40;;;;;;;;;;5034131;28;20103;-86
2023/09/12 01:48:56;;;;;;;36.20;26.30;;;19.20;1.00;;;;;;5034417;28;20053;-86
2023/09/12 01:51:24;;;;;;;36.75;27.08;;;19.10;1.00;;;;;;5035742;28;20056;-87
2023/09/12 01:53:50;;;;;;;40.75;28.50;;;;;;;;;;5034232;28;20057;-87
2023/09/12 01:56:16;;;;;;;40.40;27.25;;;;;;;;;;5034558;28;20049;-87
2023/09/12 01:58:43;;;;;;;36.45;26.05;;;;;;;;;;5033938;28;20049;-86
2023/09/12 02:01:09;;;;;;;32.47;26.45;;;;;;;;;;5034580;28;20401;-88
2023/09/12 02:03:35;;;;;;;39.92;26.13;;;;;;;;;;5050468;28;20049;-88
2023/09/12 02:06:01;;;;;;;34.20;25.85;;;;;;;;;;5034044;28;20170;-87
2023/09/12 02:08:27;;;;;;;35.55;26.75;;;;;;;;;;5034006;28;20054;-86
2023/09/12 02:10:53;;;;;;;33.90;25.90;;;;;;;;;;5034146;28;20131;-87
2023/09/12 02:13:19;;;;;;;38.38;26.60;;;;;;;;;;5050315;28;20045;-86
2023/09/12 02:15:46;;;;;;;39.58;25.98;;;;;;;;;;5033924;28;20128;-87
2023/09/12 02:18:12;;;;;;;42.70;27.05;;;;;;;;;;5050362;28;20053;-86
2023/09/12 02:20:41;;;;;;;41.25;26.73;;;18.90;1.00;;;;;;5034108;28;20037;-86
2023/09/12 02:23:07;;;;;;;37.10;27.10;;;;;;;;;;5017475;28;20504;-86
2023/09/12 02:25:33;;;;;;;43.47;27.40;;;;;;;;;;5051002;28;20038;-90
2023/09/12 02:27:59;;;;;;;32.83;26.55;;;;;;;;;;5034930;28;20053;-89
2023/09/12 02:30:26;;;;;;;36.17;25.50;;;;;;;;;;5051273;28;20047;-88
2023/09/12 02:32:52;;;;;;;40.17;26.23;;;;;;;;;;5068319;28;20049;-88
2023/09/12 02:35:18;;;;;;;32.70;25.60;;;;;;;;;;5050830;28;20058;-89
2023/09/12 02:37:44;;;;;;;32.90;24.42;;;;;;;;;;5034250;28;20053;-90
2023/09/12 02:40:11;;;;;;;34.65;25.67;;;;;;;;;;5034080;28;20045;-90
2023/09/12 02:42:38;;;;;;;34.95;25.45;;;;;;;;;;5034848;28;20063;-91
2023/09/12 02:45:04;;;;;;;37.70;25.48;;;18.70;15.50;;;;;;5051192;28;20042;-90
2023/09/12 02:47:30;;;;;;;37.13;25.08;;;;;;;;;;5034504;28;20089;-90
2023/09/12 02:49:56;;;;;;;44.55;25.40;;;;;;;;;;5035927;28;20038;-90
2023/09/12 02:52:22;;;;;;;57.75;25.95;;;;;;;;;;5051039;28;20041;-89
2023/09/12 02:54:48;;;;;;;57.03;27.10;;;;;;;;;;5035669;28;20043;-90
2023/09/12 02:57:14;;;;;;;86.82;24.40;;;;;;;;;;5034354;28;20045;-90
2023/09/12 02:59:40;;;;;;;95.50;25.85;;;;;;;;;;5050845;28;20049;-90
2023/09/12 03:02:06;;;;;;;91.63;28.17;;;;;;;;;;5034097;28;20077;-91
2023/09/12 03:04:34;;;;;;;69.60;26.45;;;18.20;5.80;;;;;;5051535;28;20075;-90
2023/09/12 03:07:00;;;;;;;91.07;28.58;;;;;;;;;;5038382;28;20060;-89
2023/09/12 03:09:26;;;;;;;95.55;27.90;;;;;;;;;;5039043;28;20041;-88
2023/09/12 03:11:53;;;;;;;75.43;26.98;;;;;;;;;;5054009;28;20505;-92
2023/09/12 03:14:19;;;;;;;116.82;29.48;;;;;;;;;;5049319;28;20183;-88
2023/09/12 03:16:45;;;;;;;64.22;25.10;;;;;;;;;;5033095;28;20045;-90
2023/09/12 03:19:11;;;;;;;130.73;29.92;;;;;;;;;;5032800;28;20037;-87
2023/09/12 03:21:39;;;;;;;113.50;27.52;;;;;;;;;;5032795;28;20044;-89
2023/09/12 03:24:05;;;;;;;70.22;25.85;;;;;;;;;;5048597;28;20063;-86
2023/09/12 03:26:34;;;;;;;87.32;27.80;;;17.90;12.80;;;;;;5033668;28;20103;-89
2023/09/12 03:29:00;;;;;;;67.63;27.23;;;;;;;;;;5032611;28;20041;-89
2023/09/12 03:31:26;;;;;;;49.15;28.52;;;;;;;;;;5032704;28;20132;-89
2023/09/12 03:33:52;;;;;;;46.85;26.98;;;;;;;;;;5048290;28;20103;-90
2023/09/12 03:36:18;;;;;;;58.35;30.25;;;;;;;;;;5032135;28;20089;-89
2023/09/12 03:38:44;;;;;;;57.65;28.35;;;;;;;;;;5032101;28;20049;-89
2023/09/12 03:41:10;;;;;;;120.20;32.55;;;;;;;;;;5065684;28;20049;-89
2023/09/12 03:43:37;;;;;;;109.95;33.10;;;;;;;;;;5049240;28;20081;-90
2023/09/12 03:46:03;;;;;;;173.52;38.78;;;;;;;;;;5032116;28;20041;-86
2023/09/12 03:48:33;;;;;;;72.55;30.23;;;18.10;18.90;;;;;;5032123;28;20567;-90
2023/09/12 03:50:59;;;;;;;118.75;35.53;;;;;;;;;;5032366;28;20508;-89
2023/09/12 03:53:26;;;;;;;125.70;33.25;;;;;;;;;;5031947;28;20068;-89
2023/09/12 03:55:52;;;;;;;69.50;29.90;;;;;;;;;;5031953;28;20045;-89
2023/09/12 03:58:18;;;;;;;251.15;41.33;;;;;;;;;;5031822;28;20072;-89
2023/09/12 04:00:44;;;;;;;153.98;34.40;;;;;;;;;;5048368;28;20086;-90
2023/09/12 04:03:11;;;;;;;145.02;36.53;;;;;;;;;;5031738;28;20045;-88
2023/09/12 04:05:37;;;;;;;130.65;35.85;;;;;;;;;;5031968;28;20473;-91
2023/09/12 04:08:03;;;;;;;57.40;31.70;;;;;;;;;;5049063;28;20052;-90
2023/09/12 04:10:29;;;;;;;90.13;32.03;;;;;;;;;;5065405;28;20039;-89
2023/09/12 04:12:55;;;;;;;183.75;37.50;;;;;;;;;;5033078;28;20056;-87
2023/09/12 04:15:21;;;;;;;77.47;33.72;;;;;;;;;;5032920;28;20069;-86
2023/09/12 04:17:47;;;;;;;68.45;32.58;;;;;;;;;;5065179;28;20060;-88
2023/09/12 04:20:13;;;;;;;103.35;35.17;;;;;;;;;;5064761;28;20084;-88
2023/09/12 04:22:40;;;;;;;85.55;32.58;;;;;;;;;;5065024;28;20153;-85
2023/09/12 04:25:06;;;;;;;113.00;31.58;;;;;;;;;;5064514;28;20437;-86
2023/09/12 04:27:34;;;;;;;73.20;30.08;;;;;;;;;;5048139;28;20042;-86
2023/09/12 04:30:00;;;;;;;111.28;33.00;;;;;;;;;;5031433;28;20045;-88
2023/09/12 04:32:26;;;;;;;62.80;30.83;;;;;;;;;;5031363;28;20053;-87
2023/09/12 04:34:52;;;;;;;58.78;32.13;;;;;;;;;;5031281;28;20046;-87
2023/09/12 04:37:18;;;;;;;154.23;37.55;;;;;;;;;;5048207;28;20045;-87
2023/09/12 04:39:45;;;;;;;87.63;33.70;;;;;;;;;;5049280;28;20041;-87
2023/09/12 04:42:11;;;;;;;109.68;32.60;;;;;;;;;;5064847;28;20659;-87
2023/09/12 04:44:41;;;;;;;75.93;32.63;;;;;;;;;;5034050;28;20077;-89
2023/09/12 04:47:08;;;;;;;102.93;35.22;;;;;;;;;;5048516;28;20049;-87
2023/09/12 04:49:34;;;;;;;99.25;33.17;;;;;;;;;;5033546;28;20493;-90
2023/09/12 04:52:00;;;;;;;87.13;31.77;;;;;;;;;;5068002;28;20544;-90
2023/09/12 04:54:26;;;;;;;80.80;31.13;;;;;;;;;;5069103;28;20128;-86
2023/09/12 04:56:53;;;;;;;113.00;33.53;;;;;;;;;;5057096;28;20064;-90
2023/09/12 04:59:19;;;;;;;57.05;29.38;;;;;;;;;;5072575;28;20059;-86
2023/09/12 05:01:45;;;;;;;80.70;30.80;;;;;;;;;;5055049;28;20049;-89
2023/09/12 05:04:11;;;;;;;44.72;30.13;;;;;;;;;;5073073;28;20041;-89
2023/09/12 05:06:38;;;;;;;47.00;28.88;;;;;;;;;;5054179;28;20046;-91
2023/09/12 05:09:05;;;;;;;49.88;28.15;;;;;;;;;;5038297;28;20509;-89
2023/09/12 05:11:31;;;;;;;53.10;29.92;;;;;;;;;;5037495;28;20045;-91
2023/09/12 05:13:59;;;;;;;76.70;31.20;;;;;;;;;;5038291;28;20057;-88
2023/09/12 05:16:25;;;;;;;65.70;29.35;;;;;;;;;;5053706;28;20052;-90
2023/09/12 05:18:51;;;;;;;70.80;27.95;;;;;;;;;;5053282;28;20084;-88
2023/09/12 05:21:17;;;;;;;86.05;29.52;;;;;;;;;;5036676;28;20072;-90
2023/09/12 05:23:44;;;;;;;57.63;25.85;;;;;;;;;;5071435;28;20091;-90
2023/09/12 05:26:10;;;;;;;83.28;27.23;;;;;;;;;;5053727;28;20038;-89
2023/09/12 05:28:36;;;;;;;72.70;29.77;;;;;;;;;;5069862;28;20048;-89
2023/09/12 05:31:02;;;;;;;66.50;28.05;;;;;;;;;;5052073;28;20128;-88
2023/09/12 05:33:28;;;;;;;76.65;32.97;;;;;;;;;;5037118;28;20124;-86
2023/09/12 05:35:55;;;;;;;59.45;28.77;;;;;;;;;;5052278;28;20084;-89
2023/09/12 05:38:21;;;;;;;58.20;29.08;;;;;;;;;;5036432;28;20045;-88
2023/09/12 05:40:49;;;;;;;72.38;28.02;;;;;;;;;;5053892;28;20042;-89
2023/09/12 05:43:16;;;;;;;80.47;31.73;;;;;;;;;;5054212;28;20051;-89
2023/09/12 05:45:42;;;;;;;75.47;31.80;;;;;;;;;;5038976;28;20034;-89
2023/09/12 05:48:09;;;;;;;66.47;31.25;;;;;;;;;;5053841;28;20048;-89
2023/09/12 05:50:36;;;;;;;95.65;35.60;;;;;;;;;;5036298;28;20049;-88
2023/09/12 05:53:02;;;;;;;124.45;34.88;;;;;;;;;;5051274;28;20045;-88
2023/09/12 05:55:28;;;;;;;86.32;34.05;;;;;;;;;;5051369;28;20068;-87
2023/09/12 05:57:54;;;;;;;125.65;34.33;;;;;;;;;;5037962;28;20115;-88
2023/09/12 06:00:21;;;;;;;93.53;34.58;;;18.10;37.50;;;;;;5054867;28;20064;-87
2023/09/12 06:02:48;;;;;;;109.28;34.20;;;18.10;40.70;;;;;;5055057;28;20111;-88
2023/09/12 06:05:14;;;;;;;127.80;35.45;;;;;;;;;;5038087;28;20111;-89
2023/09/12 06:07:41;;;;;;;102.05;32.42;;;;;;;;;;5055339;28;20061;-88
2023/09/12 06:10:07;;;;;;;162.90;34.88;;;;;;;;;;5039597;28;20041;-88
2023/09/12 06:12:35;;;;;;;156.13;35.58;;;;;;;;;;5039048;28;20484;-89
2023/09/12 06:15:03;;;;;;;180.35;38.30;;;17.90;40.10;;;;;;5038573;28;20045;-88
2023/09/12 06:17:30;;;;;;;72.75;34.13;;;;;;;;;;5026887;28;20046;-88
2023/09/12 06:19:56;;;;;;;114.55;36.20;;;;;;;;;;5043487;28;20084;-89
2023/09/12 06:22:22;;;;;;;109.10;33.95;;;;;;;;;;5042362;28;20132;-89
2023/09/12 06:24:49;;;;;;;81.93;33.83;;;;;;;;;;5039033;28;20095;-90
2023/09/12 06:27:21;;;;;;;99.35;36.05;;;;;;;;;;5057380;28;20088;-90
2023/09/12 06:29:48;;;;;;;68.35;31.70;;;;;;;;;;5043701;28;20049;-89
2023/09/12 06:32:15;;;;;;;67.95;35.08;;;;;;;;;;5040356;28;20061;-88
2023/09/12 06:34:41;;;;;;;98.35;34.08;;;;;;;;;;5039177;28;20067;-90
2023/09/12 06:37:07;;;;;;;74.50;32.13;;;;;;;;;;5038492;28;20076;-89
2023/09/12 06:39:34;;;;;;;91.82;34.90;;;;;;;;;;5040021;28;20060;-90
2023/09/12 06:42:00;;;;;;;74.45;35.92;;;;;;;;;;5039276;28;20045;-91
2023/09/12 06:44:26;;;;;;;79.00;36.13;;;;;;;;;;5039486;28;20046;-89
2023/09/12 06:46:52;;;;;;;60.53;34.00;;;;;;;;;;5038643;28;20044;-90
2023/09/12 06:49:18;;;;;;;81.47;34.83;;;;;;;;;;5039752;28;20045;-89
2023/09/12 06:51:44;;;;;;;82.50;36.97;;;;;;;;;;5054323;28;20037;-89
2023/09/12 06:54:10;;;;;;;71.68;36.55;;;;;;;;;;5037488;28;20132;-89
2023/09/12 06:56:37;;;;;;;52.03;32.08;;;;;;;;;;5037429;28;20038;-90
2023/09/12 06:59:04;;;;;;;61.38;33.70;;;;;;;;;;5054447;28;20077;-88
2023/09/12 07:01:30;;;;;;;65.28;34.80;;;18.20;50.00;;;;;;5054098;28;20132;-89
2023/09/12 07:03:57;;;;;;;72.50;34.13;;;;;;;;;;5021362;28;20270;-90
2023/09/12 07:06:23;;;;;;;66.13;35.92;;;18.30;52.10;;;;;;5038637;28;20115;-88
2023/09/12 07:08:49;;;;;;;56.78;33.17;;;;;;;;;;5021090;28;20047;-89
2023/09/12 07:11:16;;;;;;;55.13;32.95;;;;;;;;;;5054506;28;20462;-90
2023/09/12 07:13:42;;;;;;;62.80;33.25;;;;;;;;;;5038056;28;20489;-89
2023/09/12 07:16:08;;;;;;;61.17;33.60;;;;;;;;;;5033383;28;20398;-86
2023/09/12 07:18:34;;;;;;;71.80;34.65;;;;;;;;;;5033605;28;20100;-87
2023/09/12 07:21:01;;;;;;;63.08;34.25;;;;;;;;;;5049616;28;20048;-87
2023/09/12 07:23:27;;;;;;;63.25;34.30;;;;;;;;;;5032881;28;20054;-85
2023/09/12 07:25:59;;;;;;;65.45;36.08;;;18.40;54.20;;;;;;5032794;28;20437;-86
2023/09/12 07:28:26;;;;;;;72.85;37.15;;;;;;;;;;5032773;28;20405;-85
2023/09/12 07:30:56;;;;;;;73.80;35.97;;;18.50;56.30;;;;;;5032573;28;20136;-88
2023/09/12 07:33:22;;;;;;;63.10;35.30;;;;;;;;;;5015968;28;20049;-85
2023/09/12 07:35:51;;;;;;;64.55;35.42;;;18.40;56.30;;;;;;5049109;28;20089;-86
2023/09/12 07:38:19;;;;;;;62.58;34.72;;;18.60;56.80;;;;;;5016337;28;20049;-87
2023/09/12 07:40:46;;;;;;;73.93;36.08;;;;;;;;;;5016559;28;20437;-86
2023/09/12 07:43:12;;;;;;;68.13;35.15;;;;;;;;;;5032754;28;20492;-86
2023/09/12 07:45:38;;;;;;;65.22;34.70;;;;;;;;;;5049318;28;20049;-87
2023/09/12 07:48:10;;;;;;;74.10;37.72;;;18.60;47.70;;;;;;5032698;28;20050;-87
2023/09/12 07:50:38;;;;;;;67.25;38.03;;;;;;;;;;5032508;28;20057;-86
2023/09/12 07:53:05;;;;;;;74.50;38.35;;;18.80;54.50;;;;;;5032668;28;20128;-87
2023/09/12 07:55:35;;;;;;;73.80;38.75;;;;;;;;;;5032342;28;20055;-85
2023/09/12 07:58:02;;;;;;;72.45;37.05;;;18.60;60.20;;;;;;5033724;28;20053;-86
2023/09/12 08:00:29;;;;;;;74.43;37.67;;;;;;;;;;5065221;28;20063;-85
2023/09/12 08:02:55;;;;;;;69.35;37.30;;;;;;;;;;5033544;28;20098;-86
2023/09/12 08:05:21;;;;;;;73.55;37.17;;;;;;;;;;5032234;28;20041;-85
2023/09/12 08:07:47;;;;;;;77.88;38.88;;;;;;;;;;5065556;28;20049;-86
2023/09/12 08:10:13;;;;;;;76.97;38.38;;;;;;;;;;5048411;28;20033;-87
2023/09/12 08:12:46;;;;;;;79.28;40.08;;;;;;;;;;5048575;28;20431;-91
2023/09/12 08:15:12;;;;;;;62.63;36.75;;;;;;;;;;5048264;28;20045;-86
2023/09/12 08:17:39;;;;;;;74.60;38.28;;;;;;;;;;5032408;28;20068;-85
2023/09/12 08:20:06;;;;;;;73.03;39.38;;;;;;;;;;5048279;28;20116;-86
2023/09/12 08:22:32;;;;;;;68.95;37.33;;;;;;;;;;5031651;28;20118;-86
2023/09/12 08:24:58;;;;;;;66.30;36.33;;;;;;;;;;5048197;28;20041;-85
2023/09/12 08:27:24;;;;;;;66.30;37.42;;;;;;;;;;5032901;28;20397;-85
2023/09/12 08:29:50;;;;;;;76.05;37.00;;;;;;;;;;5065212;28;20081;-86
2023/09/12 08:32:17;;;;;;;65.63;33.90;;;;;;;;;;5048408;28;20111;-85
2023/09/12 08:34:43;;;;;;;74.75;37.30;;;;;;;;;;5032073;28;20042;-85
2023/09/12 08:37:09;;;;;;;67.35;37.03;;;;;;;;;;5047871;28;20506;-86
2023/09/12 08:39:45;;;;;;;57.45;34.45;;;19.40;53.00;;;;;;5031642;28;20490;-85
2023/09/12 08:42:17;;;;;;;60.30;34.40;;;;;;;;;;5014891;28;20091;-86
2023/09/12 08:44:43;;;;;;;74.97;36.83;;;;;;;;;;5031710;28;20642;-85
2023/09/12 08:47:10;;;;;;;63.65;35.50;;;;;;;;;;5031165;28;20132;-86
2023/09/12 08:49:37;;;;;;;63.88;35.15;;;;;;;;;;5031244;28;20513;-86
2023/09/12 08:52:04;;;;;;;58.80;35.05;;;19.60;63.60;;;;;;5047770;28;20513;-86
2023/09/12 08:54:31;;;;;;;62.28;35.95;;;19.70;63.50;;;;;;5014559;28;20088;-86
2023/09/12 08:56:58;;;;;;;69.22;38.05;;;;;;;;;;5032452;28;20041;-87
2023/09/12 08:59:24;;;;;;;58.22;35.15;;;;;;;;;;5031381;28;20478;-85
2023/09/12 09:01:52;;;;;;;59.80;34.03;;;;;;;;;;5031377;28;20089;-86
2023/09/12 09:04:19;;;;;;;63.28;36.38;;;19.90;63.70;;;;;;5031326;28;20050;-86
2023/09/12 09:06:46;;;;;;;65.13;37.25;;;19.90;63.50;;;;;;5047762;28;20080;-88
2023/09/12 09:09:13;;;;;;;56.75;32.58;;;19.90;63.90;;;;;;5032340;28;20045;-85
2023/09/12 09:11:39;;;;;;;59.40;33.42;;;;;;;;;;5047876;28;20037;-86
2023/09/12 09:14:05;;;;;;;53.92;31.90;;;;;;;;;;5064323;28;20398;-87
2023/09/12 09:16:31;;;;;;;58.40;35.10;;;;;;;;;;5064401;28;20128;-87
2023/09/12 09:19:11;;;;;;;62.35;34.40;;;;;;;;;;5032285;28;20038;-87
2023/09/12 09:21:40;;;;;;;57.67;32.03;;;20.20;62.60;;;;;;5031471;28;20053;-85
2023/09/12 09:24:11;;;;;;;57.15;33.35;;;20.10;52.10;;;;;;5047131;28;20510;-86
2023/09/12 09:26:51;;;;;;;57.75;34.10;;;20.40;82.70;;;;;;5031502;28;20057;-85
2023/09/12 09:29:19;;;;;;;55.97;33.30;;;20.30;61.20;;;;;;5031227;28;20045;-88
2023/09/12 09:31:47;;;;;;;59.33;34.42;;;20.10;60.90;;;;;;5030693;28;20050;-85
2023/09/12 09:34:16;;;;;;;55.13;35.95;;;20.30;59.20;;;;;;5068499;28;20053;-87
2023/09/12 09:36:49;;;;;;;56.38;33.70;;;20.30;59.80;;;;;;5018254;28;20054;-85
2023/09/12 09:39:23;;;;;;;56.95;33.33;;;20.40;50.30;;;;;;5018624;28;20052;-86
2023/09/12 09:41:52;;;;;;;54.45;33.20;;;20.60;81.00;;;;;;5018387;28;20049;-86
2023/09/12 09:44:18;;;;;;;59.20;34.78;;;;;;;;;;5051264;28;20057;-87
2023/09/12 09:46:46;;;;;;;58.17;33.95;;;20.60;58.50;;;;;;5034631;28;20045;-85
2023/09/12 09:49:12;;;;;;;54.10;32.80;;;;;;;;;;5018552;28;20049;-87
2023/09/12 09:51:42;;;;;;;51.20;33.30;;;20.40;78.10;;;;;;5034937;28;20049;-86
2023/09/12 09:54:09;;;;;;;57.42;35.13;;;20.60;53.90;;;;;;5034511;28;20049;-87
2023/09/12 09:56:54;;;;;;;56.10;33.67;;;20.70;47.40;;;;;;5018435;28;20042;-88
2023/09/12 09:59:25;;;;;;;48.38;32.60;;;20.80;47.00;;;;;;5034279;28;20049;-88
2023/09/12 10:01:57;;;;;;;44.97;29.25;;;21.00;55.50;;;;;;5034712;28;20048;-87
2023/09/12 10:04:26;;;;;;;49.25;30.13;;;21.00;53.50;;;;;;5034846;28;20096;-85
2023/09/12 10:06:55;;;;;;;49.72;28.90;;;21.20;53.90;;;;;;5034410;28;20114;-85
2023/09/12 10:09:23;;;;;;;44.67;30.55;;;20.90;53.70;;;;;;5035759;28;20041;-85
2023/09/12 10:11:51;;;;;;;49.35;30.95;;;21.30;52.90;;;;;;5034563;28;20045;-86
2023/09/12 10:14:19;;;;;;;43.40;28.55;;;21.30;52.60;;;;;;5035308;28;20048;-87
2023/09/12 10:16:51;;;;;;;49.72;29.05;;;21.10;51.50;;;;;;5036128;28;20041;-86
2023/09/12 10:19:27;;;;;;;43.47;28.10;;;21.40;69.30;;;;;;5018525;28;20041;-85
2023/09/12 10:22:13;;;;;;;39.38;26.40;;;21.40;67.70;;;;;;5035808;28;20120;-85
2023/09/12 10:24:40;;;;;;;45.42;26.80;;;;;;;;;;5017977;28;20104;-86
2023/09/12 10:27:06;;;;;;;38.80;25.98;;;;;;;;;;5033932;28;20052;-85
2023/09/12 10:29:32;;;;;;;41.80;24.75;;;;;;;;;;5033508;28;20548;-85
2023/09/12 10:31:59;;;;;;;33.53;22.60;;;;;;;;;;5034258;28;20065;-86
2023/09/12 10:34:26;;;;;;;40.78;24.85;;;21.90;39.60;;;;;;5050680;28;20053;-86
2023/09/12 10:36:55;;;;;;;33.72;22.65;;;21.60;53.90;;;;;;5016868;28;20075;-87
2023/09/12 10:39:22;;;;;;;33.08;22.00;;;21.90;50.60;;;;;;5017277;28;20049;-86
2023/09/12 10:41:51;;;;;;;41.20;26.23;;;22.00;47.50;;;;;;5016864;28;20570;-87
2023/09/12 10:44:17;;;;;;;32.15;21.35;;;;;;;;;;5015976;28;20047;-86
2023/09/12 10:46:46;;;;;;;36.58;24.35;;;22.00;29.90;;;;;;5033831;28;20100;-86
2023/09/12 10:49:15;;;;;;;30.55;21.70;;;22.10;29.00;;;;;;5017145;28;20055;-85
2023/09/12 10:51:43;;;;;;;31.88;20.50;;;21.90;28.40;;;;;;5033278;28;20055;-87
2023/09/12 10:54:22;;;;;;;32.45;21.48;;;22.10;28.10;;;;;;5049822;28;20053;-85
2023/09/12 10:57:05;;;;;;;27.60;20.33;;;22.30;26.30;;;;;;5017076;28;20092;-87
2023/09/12 10:59:35;;;;;;;35.03;19.02;;;;;;;;;;5033189;28;20087;-85
2023/09/12 11:02:33;;;;;;;26.20;17.70;;;22.30;32.90;;;;;;5049841;28;20041;-89
2023/09/12 11:05:01;;;;;;;24.13;17.85;;;22.60;18.80;;;;;;5033142;28;20056;-88
2023/09/12 11:07:44;;;;;;;25.55;17.38;;;22.40;7.50;;;;;;5033088;28;20107;-86
2023/09/12 11:10:18;;;;;;;27.05;16.95;;;22.50;26.50;;;;;;5017161;28;20572;-85
2023/09/12 11:12:51;;;;;;;27.38;16.73;;;22.70;23.50;;;;;;5035100;28;20053;-86
2023/09/12 11:15:18;;;;;;;24.42;15.57;;;22.20;20.90;;;;;;5034770;28;20512;-87
2023/09/12 11:17:46;;;;;;;18.63;13.50;;;22.60;8.50;;;;;;5016327;28;20059;-86
2023/09/12 11:20:14;;;;;;;15.73;11.80;;;22.70;6.70;;;;;;5032683;28;20045;-87
2023/09/12 11:22:44;;;;;;;16.55;12.27;;;22.80;11.90;;;;;;5032550;28;20072;-86
2023/09/12 11:25:23;;;;;;;19.30;12.70;;;22.80;9.30;;;;;;5015993;28;20060;-86
2023/09/12 11:27:52;;;;;;;19.00;11.98;;;22.70;4.40;;;;;;5032355;28;20493;-89
2023/09/12 11:30:19;;;;;;;14.85;10.70;;;23.10;1.00;;;;;;5049317;28;20452;-86
2023/09/12 11:32:50;;;;;;;17.42;12.27;;;23.10;1.00;;;;;;5032171;28;20050;-85
2023/09/12 11:35:21;;;;;;;17.27;12.10;;;23.20;1.00;;;;;;5015881;28;20038;-86
2023/09/12 11:37:53;;;;;;;21.17;12.73;;;23.20;1.00;;;;;;5048757;28;20425;-88
2023/09/12 11:40:41;;;;;;;18.45;12.65;;;23.40;1.00;;;;;;5032176;28;20045;-86
2023/09/12 11:43:17;;;;;;;18.45;13.95;;;23.20;1.00;;;;;;5032345;28;20111;-88
2023/09/12 11:45:47;;;;;;;19.77;12.73;;;23.20;1.00;;;;;;5032585;28;20037;-85
2023/09/12 11:48:13;;;;;;;16.95;12.57;;;;;;;;;;5015552;28;20037;-85
2023/09/12 11:50:41;;;;;;;16.65;12.48;;;;;;;;;;5049126;28;20041;-88
2023/09/12 11:53:11;;;;;;;14.15;12.10;;;23.20;1.00;;;;;;5032036;28;20107;-85
2023/09/12 11:55:51;;;;;;;24.95;14.95;;;23.20;1.00;;;;;;5031783;28;20049;-85
2023/09/12 11:58:18;;;;;;;15.38;11.30;;;23.10;1.00;;;;;;5048506;28;20516;-85
2023/09/12 12:00:53;;;;;;;12.75;10.85;;;23.20;1.00;;;;;;5015365;28;20043;-85
2023/09/12 12:03:22;;;;;;;11.43;9.00;;;23.10;1.00;;;;;;5015381;28;20383;-85
2023/09/12 12:05:49;;;;;;;11.80;8.73;;;22.90;1.00;;;;;;5015738;28;20128;-85
2023/09/12 12:08:16;;;;;;;12.75;9.02;;;23.20;1.00;;;;;;5048470;28;20092;-89
2023/09/12 12:10:42;;;;;;;14.20;8.70;;;23.10;1.00;;;;;;5031969;28;20052;-85
2023/09/12 12:13:15;;;;;;;14.38;10.18;;;23.00;1.00;;;;;;5048643;28;20049;-85
2023/09/12 12:15:42;;;;;;;14.95;10.18;;;23.00;1.00;;;;;;5032231;28;20541;-87
2023/09/12 12:18:07;;;;;;;14.88;10.30;;;23.10;1.00;;;;;;5031925;28;20049;-85
2023/09/12 12:20:42;;;;;;;13.27;10.43;;;23.00;1.00;;;;;;5015317;28;20047;-86
2023/09/12 12:23:08;;;;;;;16.52;11.90;;;23.10;1.00;;;;;;5015123;28;20179;-88
2023/09/12 12:25:35;;;;;;;20.77;13.30;;;22.90;1.00;;;;;;5014974;28;20044;-88
2023/09/12 12:28:02;;;;;;;12.63;10.80;;;22.70;1.00;;;;;;5065368;28;20045;-85
2023/09/12 12:30:32;;;;;;;13.38;11.07;;;22.80;1.00;;;;;;5032205;28;20119;-85
2023/09/12 12:33:02;;;;;;;14.20;11.63;;;22.90;1.00;;;;;;5015426;28;20536;-85
2023/09/12 12:35:30;;;;;;;12.60;10.75;;;22.70;1.00;;;;;;5015253;28;20041;-85
2023/09/12 12:37:57;;;;;;;14.68;11.75;;;;;;;;;;5047769;28;20395;-84
2023/09/12 12:40:23;;;;;;;17.25;11.90;;;;;;;;;;5031303;28;20564;-86
2023/09/12 12:42:49;;;;;;;11.98;9.48;;;;;;;;;;5048196;28;20045;-85
2023/09/12 12:45:20;;;;;;;14.27;10.45;;;22.70;1.00;;;;;;5031329;28;20044;-85
2023/09/12 12:47:46;;;;;;;15.68;11.00;;;22.50;1.00;;;;;;5031470;28;20072;-86
2023/09/12 12:50:13;;;;;;;14.68;10.02;;;22.80;1.00;;;;;;5014631;28;20401;-85
2023/09/12 12:52:40;;;;;;;14.63;9.52;;;22.60;1.00;;;;;;5015217;28;20045;-86
2023/09/12 12:55:11;;;;;;;14.25;9.75;;;22.60;1.00;;;;;;5015108;28;20042;-86
2023/09/12 12:57:43;;;;;;;15.63;10.05;;;22.30;1.00;;;;;;5030932;28;20049;-88
2023/09/12 13:00:11;;;;;;;11.60;10.02;;;22.50;1.00;;;;;;5030934;28;20076;-87
2023/09/12 13:02:38;;;;;;;12.98;10.35;;;22.70;1.00;;;;;;5014479;28;20528;-85
2023/09/12 13:05:07;;;;;;;11.18;9.02;;;22.60;1.00;;;;;;5014520;28;20085;-86
2023/09/12 13:07:37;;;;;;;14.70;9.73;;;22.90;1.00;;;;;;5063540;28;20049;-85
2023/09/12 13:10:04;;;;;;;14.23;10.05;;;22.90;1.00;;;;;;5047684;28;20045;-85
2023/09/12 13:12:30;;;;;;;14.18;9.90;;;;;;;;;;5014490;28;20133;-84
2023/09/12 13:14:56;;;;;;;11.32;8.82;;;23.00;1.00;;;;;;5031409;28;20095;-86
2023/09/12 13:17:23;;;;;;;14.40;7.82;;;23.00;1.00;;;;;;5030677;28;20405;-85
2023/09/12 13:19:49;;;;;;;13.00;9.27;;;;;;;;;;5030915;28;20044;-85
2023/09/12 13:22:15;;;;;;;10.32;8.23;;;23.20;1.00;;;;;;5064206;28;20099;-84
2023/09/12 13:24:41;;;;;;;12.65;8.65;;;;;;;;;;5014524;28;20049;-84
2023/09/12 13:27:07;;;;;;;8.95;7.93;;;;;;;;;;5047315;28;20050;-85
2023/09/12 13:29:33;;;;;;;10.38;8.15;;;;;;;;;;5064681;28;20432;-87
2023/09/12 13:31:59;;;;;;;8.60;7.65;;;22.90;1.00;;;;;;5064461;28;20063;-86
2023/09/12 13:34:25;;;;;;;13.35;6.85;;;23.40;1.00;;;;;;5031194;28;20557;-86
2023/09/12 13:36:51;;;;;;;9.43;7.00;;;23.20;1.00;;;;;;5047882;28;20045;-86